MAU249 FMEE-FIMP
Flight info
| Callsign | MAU249 |
|---|---|
| Flight time | 0h 27m |
| Altitude | 15000 |
| Route | EPTEK2J EPTEK EPTEK2E |
| Aircraft | A332/H-SDE3GHIJ2J3J5M1RVWXY/LB2D1 |
Departure
| Time | 2026-04-29 11:34 |
|---|---|
| Airport | Roland Garros Airport (FMEE) |
Arrival
| Time | 2026-04-29 12:02 |
|---|---|
| Airport | Sir Seewoosagur Ramgoolam International Airport (FIMP) |
| Time | Latitude | Longitude | Altitude | Speed | Heading |
|---|---|---|---|---|---|
| 2026-04-29 11:08 | -20.89103 | 55.51298 | 70 ft | 0 kts | 212° |
| 2026-04-29 11:21 | -20.89096 | 55.51303 | 67 ft | 3 kts | 212° |
| 2026-04-29 11:21 | -20.89079 | 55.51314 | 72 ft | 3 kts | 212° |
| 2026-04-29 11:21 | -20.89064 | 55.51327 | 67 ft | 3 kts | 236° |
| 2026-04-29 11:22 | -20.89056 | 55.51346 | 67 ft | 3 kts | 257° |
| 2026-04-29 11:22 | -20.89054 | 55.51364 | 67 ft | 3 kts | 278° |
| 2026-04-29 11:22 | -20.89059 | 55.51384 | 67 ft | 3 kts | 300° |
| 2026-04-29 11:22 | -20.89060 | 55.51387 | 67 ft | 0 kts | 300° |
| 2026-04-29 11:28 | -20.89060 | 55.51386 | 78 ft | 1 kts | 300° |
| 2026-04-29 11:28 | -20.89045 | 55.51356 | 67 ft | 10 kts | 299° |
| 2026-04-29 11:28 | -20.89013 | 55.51287 | 68 ft | 9 kts | 296° |
| 2026-04-29 11:28 | -20.88989 | 55.51236 | 71 ft | 0 kts | 297° |
| 2026-04-29 11:30 | -20.88985 | 55.51228 | 67 ft | 2 kts | 297° |
| 2026-04-29 11:30 | -20.88965 | 55.51204 | 72 ft | 9 kts | 320° |
| 2026-04-29 11:30 | -20.88877 | 55.51164 | 70 ft | 13 kts | 339° |
| 2026-04-29 11:31 | -20.88785 | 55.51129 | 59 ft | 15 kts | 333° |
| 2026-04-29 11:31 | -20.88721 | 55.51044 | 57 ft | 16 kts | 288° |
| 2026-04-29 11:31 | -20.88695 | 55.50935 | 58 ft | 19 kts | 282° |
| 2026-04-29 11:31 | -20.88664 | 55.50788 | 53 ft | 22 kts | 282° |
| 2026-04-29 11:32 | -20.88631 | 55.50625 | 56 ft | 23 kts | 282° |
| 2026-04-29 11:32 | -20.88574 | 55.50502 | 52 ft | 6 kts | 282° |
| 2026-04-29 11:32 | -20.88583 | 55.50490 | 50 ft | 3 kts | 221° |
| 2026-04-29 11:32 | -20.88599 | 55.50496 | 49 ft | 4 kts | 144° |
| 2026-04-29 11:33 | -20.88609 | 55.50522 | 49 ft | 0 kts | 104° |
| 2026-04-29 11:33 | -20.88613 | 55.50540 | 53 ft | 9 kts | 103° |
| 2026-04-29 11:33 | -20.88647 | 55.50703 | 54 ft | 52 kts | 102° |
| 2026-04-29 11:33 | -20.88768 | 55.51314 | 55 ft | 115 kts | 101° |
| 2026-04-29 11:34 | -20.88980 | 55.52354 | 84 ft | 169 kts | 99° |
| 2026-04-29 11:34 | -20.89229 | 55.53677 | 533 ft | 192 kts | 100° |
| 2026-04-29 11:34 | -20.89455 | 55.55096 | 1383 ft | 191 kts | 89° |
| 2026-04-29 11:34 | -20.88926 | 55.56333 | 2222 ft | 192 kts | 41° |
| 2026-04-29 11:35 | -20.87834 | 55.57199 | 2871 ft | 201 kts | 42° |
| 2026-04-29 11:35 | -20.86790 | 55.58296 | 3348 ft | 222 kts | 45° |
| 2026-04-29 11:35 | -20.85775 | 55.59364 | 3741 ft | 239 kts | 44° |
| 2026-04-29 11:35 | -20.84542 | 55.60649 | 4196 ft | 255 kts | 46° |
| 2026-04-29 11:36 | -20.83356 | 55.62129 | 4793 ft | 268 kts | 51° |
| 2026-04-29 11:36 | -20.82176 | 55.63699 | 5589 ft | 273 kts | 51° |
| 2026-04-29 11:36 | -20.80971 | 55.65284 | 6449 ft | 277 kts | 51° |
| 2026-04-29 11:36 | -20.79738 | 55.66879 | 7234 ft | 280 kts | 51° |
| 2026-04-29 11:37 | -20.78481 | 55.68490 | 8097 ft | 284 kts | 50° |
| 2026-04-29 11:37 | -20.77206 | 55.70114 | 8965 ft | 287 kts | 50° |
| 2026-04-29 11:37 | -20.75909 | 55.71760 | 9828 ft | 291 kts | 50° |
| 2026-04-29 11:37 | -20.74584 | 55.73438 | 10447 ft | 304 kts | 50° |
| 2026-04-29 11:38 | -20.73172 | 55.75224 | 10776 ft | 325 kts | 50° |
| 2026-04-29 11:38 | -20.71680 | 55.77109 | 11236 ft | 339 kts | 50° |
| 2026-04-29 11:38 | -20.70142 | 55.79052 | 11895 ft | 346 kts | 50° |
| 2026-04-29 11:38 | -20.68580 | 55.81024 | 12636 ft | 350 kts | 50° |
| 2026-04-29 11:39 | -20.66999 | 55.83018 | 13376 ft | 354 kts | 50° |
| 2026-04-29 11:39 | -20.65399 | 55.85036 | 14078 ft | 358 kts | 50° |
| 2026-04-29 11:39 | -20.64511 | 55.86157 | 14398 ft | 361 kts | 50° |
| 2026-04-29 11:39 | -20.62875 | 55.88219 | 14815 ft | 366 kts | 50° |
| 2026-04-29 11:40 | -20.61175 | 55.90247 | 14974 ft | 363 kts | 48° |
| 2026-04-29 11:40 | -20.59476 | 55.92188 | 15007 ft | 360 kts | 47° |
| 2026-04-29 11:40 | -20.57096 | 55.94889 | 14967 ft | 393 kts | 48° |
| 2026-04-29 11:40 | -20.55178 | 55.97066 | 14967 ft | 409 kts | 47° |
| 2026-04-29 11:41 | -20.53221 | 55.99286 | 14972 ft | 412 kts | 47° |
| 2026-04-29 11:41 | -20.51258 | 56.01513 | 14968 ft | 412 kts | 47° |
| 2026-04-29 11:41 | -20.49934 | 56.03017 | 14984 ft | 411 kts | 47° |
| 2026-04-29 11:41 | -20.47972 | 56.05242 | 14972 ft | 412 kts | 48° |
| 2026-04-29 11:42 | -20.46013 | 56.07464 | 14982 ft | 411 kts | 47° |
| 2026-04-29 11:42 | -20.44061 | 56.09695 | 14970 ft | 411 kts | 50° |
| 2026-04-29 11:42 | -20.42517 | 56.12236 | 14967 ft | 408 kts | 68° |
| 2026-04-29 11:42 | -20.41861 | 56.15110 | 14981 ft | 405 kts | 87° |
| 2026-04-29 11:43 | -20.41880 | 56.18108 | 14972 ft | 405 kts | 93° |
| 2026-04-29 11:43 | -20.42015 | 56.21109 | 14974 ft | 405 kts | 93° |
| 2026-04-29 11:43 | -20.42111 | 56.23773 | 14978 ft | 406 kts | 92° |
| 2026-04-29 11:43 | -20.42185 | 56.26781 | 14975 ft | 406 kts | 92° |
| 2026-04-29 11:44 | -20.42232 | 56.29789 | 14970 ft | 406 kts | 91° |
| 2026-04-29 11:44 | -20.42265 | 56.32795 | 14977 ft | 406 kts | 91° |
| 2026-04-29 11:44 | -20.42289 | 56.35807 | 14981 ft | 406 kts | 91° |
| 2026-04-29 11:44 | -20.42309 | 56.38812 | 14976 ft | 406 kts | 91° |
| 2026-04-29 11:45 | -20.42325 | 56.41824 | 14973 ft | 406 kts | 91° |
| 2026-04-29 11:45 | -20.42340 | 56.44840 | 14971 ft | 406 kts | 91° |
| 2026-04-29 11:45 | -20.42353 | 56.47698 | 14974 ft | 406 kts | 91° |
| 2026-04-29 11:45 | -20.42365 | 56.50509 | 14980 ft | 406 kts | 91° |
| 2026-04-29 11:46 | -20.42377 | 56.53513 | 14975 ft | 405 kts | 91° |
| 2026-04-29 11:46 | -20.42388 | 56.56516 | 14982 ft | 405 kts | 91° |
| 2026-04-29 11:46 | -20.42399 | 56.59511 | 14976 ft | 398 kts | 91° |
| 2026-04-29 11:46 | -20.42407 | 56.62408 | 14978 ft | 385 kts | 91° |
| 2026-04-29 11:47 | -20.42416 | 56.65241 | 14974 ft | 380 kts | 91° |
| 2026-04-29 11:47 | -20.42425 | 56.68055 | 14983 ft | 380 kts | 91° |
| 2026-04-29 11:47 | -20.42434 | 56.70866 | 14794 ft | 377 kts | 91° |
| 2026-04-29 11:47 | -20.42441 | 56.73320 | 14377 ft | 374 kts | 91° |
| 2026-04-29 11:48 | -20.42449 | 56.76090 | 13820 ft | 372 kts | 90° |
| 2026-04-29 11:48 | -20.42456 | 56.78838 | 13213 ft | 369 kts | 90° |
| 2026-04-29 11:48 | -20.42462 | 56.81565 | 12606 ft | 367 kts | 90° |
| 2026-04-29 11:48 | -20.42468 | 56.84281 | 11994 ft | 366 kts | 90° |
| 2026-04-29 11:49 | -20.42473 | 56.86977 | 11479 ft | 361 kts | 91° |
| 2026-04-29 11:49 | -20.42478 | 56.89637 | 11252 ft | 358 kts | 90° |
| 2026-04-29 11:49 | -20.42482 | 56.92282 | 11160 ft | 354 kts | 90° |
| 2026-04-29 11:49 | -20.42486 | 56.94847 | 11013 ft | 341 kts | 90° |
| 2026-04-29 11:50 | -20.42489 | 56.97325 | 10856 ft | 327 kts | 91° |
| 2026-04-29 11:50 | -20.42492 | 56.99703 | 10696 ft | 315 kts | 90° |
| 2026-04-29 11:50 | -20.42494 | 57.02001 | 10530 ft | 304 kts | 90° |
| 2026-04-29 11:50 | -20.42496 | 57.03953 | 10273 ft | 300 kts | 91° |
| 2026-04-29 11:51 | -20.42498 | 57.06179 | 9881 ft | 300 kts | 91° |
| 2026-04-29 11:51 | -20.42500 | 57.08394 | 9508 ft | 297 kts | 91° |
| 2026-04-29 11:51 | -20.42502 | 57.10593 | 9104 ft | 296 kts | 91° |
| 2026-04-29 11:51 | -20.42503 | 57.12776 | 8720 ft | 294 kts | 90° |
| 2026-04-29 11:52 | -20.42504 | 57.14948 | 8357 ft | 292 kts | 90° |
| 2026-04-29 11:52 | -20.42505 | 57.17107 | 7949 ft | 291 kts | 90° |
| 2026-04-29 11:52 | -20.42505 | 57.19255 | 7594 ft | 289 kts | 90° |
| 2026-04-29 11:52 | -20.42505 | 57.21392 | 7218 ft | 287 kts | 90° |
| 2026-04-29 11:53 | -20.42505 | 57.23513 | 6864 ft | 285 kts | 89° |
| 2026-04-29 11:53 | -20.42330 | 57.25607 | 6494 ft | 283 kts | 75° |
| 2026-04-29 11:53 | -20.41562 | 57.27523 | 6138 ft | 281 kts | 60° |
| 2026-04-29 11:53 | -20.40571 | 57.29298 | 5808 ft | 277 kts | 58° |
| 2026-04-29 11:54 | -20.39557 | 57.31037 | 5456 ft | 275 kts | 58° |
| 2026-04-29 11:54 | -20.38555 | 57.32756 | 5135 ft | 272 kts | 58° |
| 2026-04-29 11:54 | -20.37567 | 57.34460 | 4828 ft | 268 kts | 58° |
| 2026-04-29 11:54 | -20.36713 | 57.35937 | 4730 ft | 259 kts | 58° |
| 2026-04-29 11:55 | -20.35807 | 57.37545 | 4629 ft | 248 kts | 62° |
| 2026-04-29 11:55 | -20.35120 | 57.39197 | 4524 ft | 240 kts | 67° |
| 2026-04-29 11:55 | -20.34547 | 57.40831 | 4438 ft | 229 kts | 69° |
| 2026-04-29 11:55 | -20.34019 | 57.42383 | 4326 ft | 217 kts | 70° |
| 2026-04-29 11:56 | -20.33518 | 57.43853 | 4209 ft | 206 kts | 69° |
| 2026-04-29 11:56 | -20.33042 | 57.45253 | 4123 ft | 195 kts | 72° |
| 2026-04-29 11:56 | -20.32817 | 57.46608 | 4023 ft | 181 kts | 91° |
| 2026-04-29 11:56 | -20.33128 | 57.47864 | 3898 ft | 172 kts | 111° |
| 2026-04-29 11:57 | -20.33635 | 57.48968 | 3879 ft | 162 kts | 114° |
| 2026-04-29 11:57 | -20.34160 | 57.50021 | 3911 ft | 161 kts | 114° |
| 2026-04-29 11:57 | -20.34680 | 57.51079 | 3902 ft | 162 kts | 115° |
| 2026-04-29 11:57 | -20.35207 | 57.52140 | 3846 ft | 162 kts | 116° |
| 2026-04-29 11:58 | -20.35743 | 57.53202 | 3556 ft | 164 kts | 115° |
| 2026-04-29 11:58 | -20.36265 | 57.54292 | 3255 ft | 165 kts | 115° |
| 2026-04-29 11:58 | -20.36797 | 57.55383 | 2892 ft | 165 kts | 114° |
| 2026-04-29 11:58 | -20.37280 | 57.56319 | 2605 ft | 159 kts | 114° |
| 2026-04-29 11:59 | -20.37768 | 57.57343 | 2413 ft | 151 kts | 112° |
| 2026-04-29 11:59 | -20.38229 | 57.58303 | 2169 ft | 144 kts | 112° |
| 2026-04-29 11:59 | -20.38681 | 57.59215 | 1980 ft | 136 kts | 112° |
| 2026-04-29 11:59 | -20.39055 | 57.60009 | 1786 ft | 135 kts | 111° |
| 2026-04-29 12:00 | -20.39460 | 57.60932 | 1585 ft | 139 kts | 110° |
| 2026-04-29 12:00 | -20.39873 | 57.61854 | 1378 ft | 138 kts | 114° |
| 2026-04-29 12:00 | -20.40330 | 57.62771 | 1260 ft | 141 kts | 114° |
| 2026-04-29 12:00 | -20.40785 | 57.63696 | 1039 ft | 139 kts | 113° |
| 2026-04-29 12:01 | -20.41221 | 57.64590 | 826 ft | 135 kts | 112° |
| 2026-04-29 12:01 | -20.41639 | 57.65482 | 614 ft | 133 kts | 114° |
| 2026-04-29 12:01 | -20.42065 | 57.66350 | 416 ft | 132 kts | 112° |
| 2026-04-29 12:01 | -20.42482 | 57.67222 | 241 ft | 131 kts | 112° |
| 2026-04-29 12:02 | -20.42864 | 57.68029 | 192 ft | 99 kts | 117° |
| 2026-04-29 12:02 | -20.43054 | 57.68418 | 189 ft | 25 kts | 118° |
| 2026-04-29 12:02 | -20.43147 | 57.68454 | 184 ft | 12 kts | 208° |
| 2026-04-29 12:02 | -20.43216 | 57.68414 | 198 ft | 13 kts | 209° |
| 2026-04-29 12:03 | -20.43293 | 57.68362 | 182 ft | 8 kts | 231° |
| 2026-04-29 12:03 | -20.43292 | 57.68345 | 183 ft | 2 kts | 280° |
| 2026-04-29 12:03 | -20.43273 | 57.68287 | 200 ft | 12 kts | 292° |
| 2026-04-29 12:03 | -20.43237 | 57.68213 | 203 ft | 10 kts | 297° |
| 2026-04-29 12:04 | -20.43202 | 57.68140 | 203 ft | 13 kts | 297° |
| 2026-04-29 12:04 | -20.43158 | 57.68049 | 204 ft | 15 kts | 297° |
| 2026-04-29 12:04 | -20.43110 | 57.67945 | 206 ft | 15 kts | 289° |
| 2026-04-29 12:04 | -20.43136 | 57.67871 | 206 ft | 9 kts | 220° |
| 2026-04-29 12:05 | -20.43166 | 57.67850 | 202 ft | 1 kts | 212° |
| 2026-04-29 12:05 | -20.43167 | 57.67849 | 201 ft | 0 kts | 212° |